createdAt,value
2019-05-29T00:00:05.736Z,0.00
2019-05-29T00:01:08.679Z,0.00
2019-05-29T00:02:05.961Z,0.00
2019-05-29T00:03:04.469Z,0.00
2019-05-29T00:04:04.444Z,0.00
2019-05-29T00:05:04.454Z,0.00
2019-05-29T00:06:04.417Z,0.00
2019-05-29T00:07:04.442Z,0.00
2019-05-29T00:08:04.403Z,0.00
2019-05-29T00:09:04.396Z,0.00
2019-05-29T00:10:04.387Z,0.00
2019-05-29T00:11:04.363Z,0.00
2019-05-29T00:12:04.394Z,0.00
2019-05-29T00:13:04.349Z,0.00
2019-05-29T00:14:18.743Z,0.00
2019-05-29T00:15:06.177Z,0.00
2019-05-29T00:16:04.337Z,0.00
2019-05-29T00:17:04.318Z,0.00
2019-05-29T00:18:04.305Z,0.00
2019-05-29T00:19:04.288Z,0.00
2019-05-29T00:20:04.281Z,0.00
2019-05-29T00:21:04.264Z,0.00
2019-05-29T00:22:04.274Z,0.00
2019-05-29T00:23:04.254Z,0.00
2019-05-29T00:24:04.219Z,0.00
2019-05-29T00:25:04.216Z,0.00
2019-05-29T00:26:04.213Z,0.00
2019-05-29T00:27:05.291Z,0.00
2019-05-29T00:28:04.194Z,0.00
2019-05-29T00:29:05.543Z,0.00
2019-05-29T00:30:04.156Z,0.00
2019-05-29T00:31:04.165Z,0.00
2019-05-29T00:32:04.178Z,0.00
2019-05-29T00:33:04.141Z,0.00
2019-05-29T00:34:04.106Z,0.00
2019-05-29T00:35:04.152Z,0.00
2019-05-29T00:36:04.088Z,0.00
2019-05-29T00:37:04.085Z,0.00
2019-05-29T00:38:04.139Z,0.00
2019-05-29T00:39:04.068Z,0.00
2019-05-29T00:40:04.048Z,0.00
2019-05-29T00:41:04.047Z,0.00
2019-05-29T00:42:04.029Z,0.00
2019-05-29T00:43:04.048Z,0.00
2019-05-29T00:44:04.009Z,0.00
2019-05-29T00:45:04.015Z,0.00
2019-05-29T00:46:03.992Z,0.00
2019-05-29T00:47:04.031Z,0.00
2019-05-29T00:48:03.994Z,0.00
2019-05-29T00:49:03.954Z,0.00
2019-05-29T00:50:03.932Z,0.00
2019-05-29T00:51:03.939Z,0.00
2019-05-29T00:52:03.930Z,0.00
2019-05-29T00:53:03.936Z,0.00
2019-05-29T00:54:03.905Z,0.00
2019-05-29T00:55:03.900Z,0.00
2019-05-29T00:56:03.875Z,0.00
2019-05-29T00:57:03.868Z,0.00
2019-05-29T00:58:03.876Z,0.00
2019-05-29T00:59:03.841Z,0.00
2019-05-29T01:00:03.825Z,0.00
2019-05-29T01:01:03.835Z,0.00
2019-05-29T01:02:03.826Z,0.00
2019-05-29T01:03:03.823Z,0.00
2019-05-29T01:04:03.805Z,0.00
2019-05-29T01:05:03.791Z,0.00
2019-05-29T01:06:03.761Z,0.00
2019-05-29T01:07:03.752Z,0.00
2019-05-29T01:08:03.752Z,0.00
2019-05-29T01:09:03.752Z,0.00
2019-05-29T01:10:03.722Z,0.00
2019-05-29T01:11:03.727Z,0.00
2019-05-29T01:12:03.700Z,0.00
2019-05-29T01:13:03.720Z,0.00
2019-05-29T01:14:03.701Z,0.00
2019-05-29T01:15:03.681Z,0.00
2019-05-29T01:16:03.651Z,0.00
2019-05-29T01:17:03.663Z,0.00
2019-05-29T01:18:03.655Z,0.00
2019-05-29T01:19:03.627Z,0.00
2019-05-29T01:20:03.634Z,0.00
2019-05-29T01:21:03.611Z,0.00
2019-05-29T01:22:03.586Z,0.00
2019-05-29T01:23:03.601Z,0.00
2019-05-29T01:24:03.578Z,0.00
2019-05-29T01:25:03.562Z,0.00
2019-05-29T01:26:03.538Z,0.00
2019-05-29T01:27:03.645Z,0.00
2019-05-29T01:28:03.551Z,0.00
2019-05-29T01:29:03.578Z,0.00
2019-05-29T01:30:03.514Z,0.00
2019-05-29T01:31:03.487Z,0.00
2019-05-29T01:32:03.486Z,0.00
2019-05-29T01:33:03.514Z,0.00
2019-05-29T01:34:03.491Z,0.00
2019-05-29T01:35:03.448Z,0.00
2019-05-29T01:36:03.443Z,0.00
2019-05-29T01:37:03.423Z,0.00
2019-05-29T01:38:03.452Z,0.00
2019-05-29T01:39:03.411Z,0.00
2019-05-29T01:40:18.669Z,0.00
2019-05-29T01:41:04.378Z,0.00
2019-05-29T01:42:03.372Z,0.00
2019-05-29T01:43:03.388Z,0.00
2019-05-29T01:44:03.347Z,0.00
2019-05-29T01:45:07.903Z,0.00
2019-05-29T01:46:04.332Z,0.00
2019-05-29T01:47:03.309Z,0.00
2019-05-29T01:48:03.336Z,0.00
2019-05-29T01:49:03.304Z,0.00
2019-05-29T01:50:03.327Z,0.00
2019-05-29T01:51:03.295Z,0.00
2019-05-29T01:52:03.265Z,0.00
2019-05-29T01:53:03.274Z,0.00
2019-05-29T01:54:03.248Z,0.00
2019-05-29T01:55:03.227Z,0.00
2019-05-29T01:56:03.236Z,0.00
2019-05-29T01:57:03.236Z,0.00
2019-05-29T01:58:03.233Z,0.00
2019-05-29T01:59:03.202Z,0.00
2019-05-29T02:00:03.183Z,0.00
2019-05-29T02:01:03.167Z,0.00
2019-05-29T02:02:03.166Z,0.00
2019-05-29T02:03:03.184Z,0.00
2019-05-29T02:04:03.143Z,0.00
2019-05-29T02:05:03.130Z,0.00
2019-05-29T02:06:03.122Z,0.00
2019-05-29T02:07:03.107Z,0.00
2019-05-29T02:08:03.233Z,0.00
2019-05-29T02:09:03.066Z,0.00
2019-05-29T02:10:03.063Z,0.00
2019-05-29T02:11:03.044Z,0.00
2019-05-29T02:12:03.038Z,0.00
2019-05-29T02:13:03.179Z,0.00
2019-05-29T02:14:03.040Z,0.00
2019-05-29T02:15:02.999Z,0.00
2019-05-29T02:16:03.027Z,0.00
2019-05-29T02:17:02.985Z,0.00
2019-05-29T02:18:02.989Z,0.00
2019-05-29T02:19:03.100Z,0.00
2019-05-29T02:20:02.963Z,0.00
2019-05-29T02:21:02.951Z,0.00
2019-05-29T02:22:02.945Z,0.00
2019-05-29T02:23:02.935Z,0.00
2019-05-29T02:24:02.969Z,0.00
2019-05-29T02:25:02.904Z,0.00
2019-05-29T02:26:02.899Z,0.00
2019-05-29T02:27:02.871Z,0.00
2019-05-29T02:28:02.869Z,0.00
2019-05-29T02:29:02.881Z,0.00
2019-05-29T02:30:02.852Z,0.00
2019-05-29T02:31:02.842Z,0.00
2019-05-29T02:32:02.836Z,0.00
2019-05-29T02:33:02.799Z,0.00
2019-05-29T02:34:07.025Z,0.00
2019-05-29T02:35:02.795Z,0.00
2019-05-29T02:36:02.788Z,0.00
2019-05-29T02:37:02.770Z,0.00
2019-05-29T02:38:02.765Z,0.00
2019-05-29T02:39:02.764Z,0.00
2019-05-29T02:40:02.742Z,0.00
2019-05-29T02:41:02.744Z,0.00
2019-05-29T02:42:02.729Z,0.00
2019-05-29T02:43:02.725Z,0.00
2019-05-29T02:44:02.797Z,0.00
2019-05-29T02:45:02.683Z,0.00
2019-05-29T02:46:02.658Z,0.00
2019-05-29T02:47:02.660Z,4.00
2019-05-29T02:48:02.656Z,4.00
2019-05-29T02:49:02.742Z,4.00
2019-05-29T02:50:02.626Z,0.00
2019-05-29T02:51:02.615Z,4.00
2019-05-29T02:52:02.594Z,4.00
2019-05-29T02:53:02.602Z,4.00
2019-05-29T02:54:02.627Z,8.00
2019-05-29T02:55:02.570Z,4.00
2019-05-29T02:56:02.559Z,8.00
2019-05-29T02:57:02.553Z,4.00
2019-05-29T02:58:02.542Z,8.00
2019-05-29T02:59:02.613Z,8.00
2019-05-29T03:00:02.546Z,12.00
2019-05-29T03:01:02.511Z,12.00
2019-05-29T03:02:02.529Z,16.00
2019-05-29T03:03:02.493Z,12.00
2019-05-29T03:04:02.498Z,16.00
2019-05-29T03:05:02.478Z,16.00
2019-05-29T03:06:02.454Z,20.00
2019-05-29T03:07:02.466Z,24.00
2019-05-29T03:08:02.430Z,24.00
2019-05-29T03:09:02.464Z,28.00
2019-05-29T03:10:02.413Z,32.00
2019-05-29T03:11:02.403Z,36.00
2019-05-29T03:12:02.393Z,40.00
2019-05-29T03:13:02.383Z,48.00
2019-05-29T03:14:02.623Z,52.00
2019-05-29T03:15:02.360Z,56.00
2019-05-29T03:16:10.389Z,60.00
2019-05-29T03:17:03.330Z,68.00
2019-05-29T03:18:02.340Z,76.00
2019-05-29T03:19:02.679Z,88.00
2019-05-29T03:20:02.301Z,96.00
2019-05-29T03:21:02.299Z,108.00
2019-05-29T03:22:02.294Z,120.00
2019-05-29T03:23:02.279Z,128.00
2019-05-29T03:24:02.296Z,136.00
2019-05-29T03:25:02.259Z,144.00
2019-05-29T03:26:02.240Z,148.00
2019-05-29T03:27:02.248Z,156.00
2019-05-29T03:28:02.220Z,164.00
2019-05-29T03:29:02.236Z,176.00
2019-05-29T03:30:02.201Z,180.00
2019-05-29T03:31:02.182Z,188.00
2019-05-29T03:32:02.194Z,196.00
2019-05-29T03:33:02.170Z,208.00
2019-05-29T03:34:02.274Z,216.00
2019-05-29T03:35:02.200Z,232.00
2019-05-29T03:36:02.160Z,252.00
2019-05-29T03:37:02.147Z,272.00
2019-05-29T03:38:02.103Z,292.00
2019-05-29T03:39:02.083Z,312.00
2019-05-29T03:40:02.135Z,336.00
2019-05-29T03:41:02.070Z,364.00
2019-05-29T03:42:02.067Z,392.00
2019-05-29T03:43:02.076Z,424.00
2019-05-29T03:44:02.044Z,460.00
2019-05-29T03:45:02.121Z,496.00
2019-05-29T03:46:02.037Z,532.00
2019-05-29T03:47:02.019Z,564.00
2019-05-29T03:48:02.009Z,600.00
2019-05-29T03:49:02.042Z,632.00
2019-05-29T03:50:01.975Z,668.00
2019-05-29T03:51:01.986Z,700.00
2019-05-29T03:52:01.960Z,724.00
2019-05-29T03:53:02.005Z,748.00
2019-05-29T03:54:02.021Z,776.00
2019-05-29T03:55:01.998Z,808.00
2019-05-29T03:56:01.922Z,840.00
2019-05-29T03:57:01.912Z,872.00
2019-05-29T03:58:01.883Z,908.00
2019-05-29T03:59:01.911Z,964.00
2019-05-29T04:00:01.882Z,992.00
2019-05-29T04:01:01.867Z,1008.00
2019-05-29T04:02:01.843Z,1028.00
2019-05-29T04:03:01.848Z,1056.00
2019-05-29T04:04:01.843Z,1076.00
2019-05-29T04:05:01.819Z,1068.00
2019-05-29T04:06:01.819Z,1092.00
2019-05-29T04:07:01.797Z,1108.00
2019-05-29T04:08:01.782Z,1132.00
2019-05-29T04:09:01.810Z,1148.00
2019-05-29T04:10:01.766Z,1188.00
2019-05-29T04:11:01.755Z,1220.00
2019-05-29T04:12:01.767Z,1248.00
2019-05-29T04:13:01.721Z,1288.00
2019-05-29T04:14:01.745Z,1336.00
2019-05-29T04:15:01.743Z,1384.00
2019-05-29T04:16:01.693Z,1416.00
2019-05-29T04:17:01.670Z,1448.00
2019-05-29T04:18:01.676Z,1492.00
2019-05-29T04:19:01.678Z,1556.00
2019-05-29T04:20:01.694Z,1632.00
2019-05-29T04:21:01.652Z,1712.00
2019-05-29T04:22:01.636Z,1788.00
2019-05-29T04:23:01.613Z,1860.00
2019-05-29T04:24:01.637Z,1904.00
2019-05-29T04:25:01.616Z,1908.00
2019-05-29T04:26:01.581Z,1888.00
2019-05-29T04:27:01.559Z,1848.00
2019-05-29T04:28:01.570Z,1808.00
2019-05-29T04:29:01.707Z,1784.00
2019-05-29T04:30:01.548Z,1756.00
2019-05-29T04:31:01.529Z,1732.00
2019-05-29T04:32:01.542Z,1700.00
2019-05-29T04:33:01.504Z,1680.00
2019-05-29T04:34:01.483Z,1664.00
2019-05-29T04:35:01.518Z,1664.00
2019-05-29T04:36:01.458Z,1684.00
2019-05-29T04:37:01.458Z,1712.00
2019-05-29T04:38:01.443Z,1724.00
2019-05-29T04:39:01.450Z,1728.00
2019-05-29T04:40:01.669Z,1728.00
2019-05-29T04:41:01.435Z,1728.00
2019-05-29T04:42:01.422Z,1756.00
2019-05-29T04:43:01.403Z,1800.00
2019-05-29T04:44:01.437Z,1864.00
2019-05-29T04:45:01.376Z,1928.00
2019-05-29T04:46:01.377Z,1964.00
2019-05-29T04:47:10.985Z,2000.00
2019-05-29T04:48:02.377Z,2016.00
2019-05-29T04:49:01.360Z,2012.00
2019-05-29T04:50:01.343Z,1996.00
2019-05-29T04:51:01.309Z,2000.00
2019-05-29T04:52:01.290Z,2024.00
2019-05-29T04:53:01.292Z,2080.00
2019-05-29T04:54:01.258Z,2160.00
2019-05-29T04:55:01.285Z,2232.00
2019-05-29T04:56:01.231Z,2276.00
2019-05-29T04:57:01.238Z,2300.00
2019-05-29T04:58:01.210Z,2332.00
2019-05-29T04:59:01.200Z,2360.00
2019-05-29T05:00:01.249Z,2400.00
2019-05-29T05:01:01.199Z,2440.00
2019-05-29T05:02:01.165Z,2484.00
2019-05-29T05:03:01.179Z,2540.00
2019-05-29T05:04:01.146Z,2636.00
2019-05-29T05:05:01.265Z,2692.00
2019-05-29T05:06:01.129Z,2716.00
2019-05-29T05:07:01.139Z,2724.00
2019-05-29T05:08:01.126Z,2724.00
2019-05-29T05:09:01.098Z,2728.00
2019-05-29T05:10:01.112Z,2764.00
2019-05-29T05:11:01.075Z,2828.00
2019-05-29T05:12:01.079Z,2912.00
2019-05-29T05:13:01.051Z,3020.00
2019-05-29T05:14:01.724Z,3164.00
2019-05-29T05:15:01.100Z,3324.00
2019-05-29T05:16:01.033Z,3468.00
2019-05-29T05:17:01.005Z,3592.00
2019-05-29T05:18:01.012Z,3720.00
2019-05-29T05:19:00.996Z,3868.00
2019-05-29T05:20:01.023Z,3956.00
2019-05-29T05:21:00.977Z,4016.00
2019-05-29T05:22:00.971Z,4024.00
2019-05-29T05:23:00.966Z,3916.00
2019-05-29T05:24:00.935Z,3800.00
2019-05-29T05:25:00.951Z,3744.00
2019-05-29T05:26:00.947Z,3728.00
2019-05-29T05:27:00.916Z,3752.00
2019-05-29T05:28:00.902Z,3832.00
2019-05-29T05:29:00.892Z,4020.00
2019-05-29T05:30:00.897Z,4208.00
2019-05-29T05:31:00.865Z,4404.00
2019-05-29T05:32:00.852Z,4576.00
2019-05-29T05:33:00.855Z,4856.00
2019-05-29T05:34:00.837Z,5352.00
2019-05-29T05:35:00.862Z,6412.00
2019-05-29T05:36:00.812Z,8184.00
2019-05-29T05:37:00.792Z,10268.00
2019-05-29T05:38:00.787Z,11936.00
2019-05-29T05:39:00.786Z,13628.00
2019-05-29T05:40:00.791Z,14864.00
2019-05-29T05:41:00.757Z,16160.00
2019-05-29T05:42:00.760Z,17600.00
2019-05-29T05:43:00.766Z,18144.00
2019-05-29T05:44:00.728Z,18176.00
2019-05-29T05:45:00.749Z,18560.00
2019-05-29T05:46:00.718Z,18080.00
2019-05-29T05:47:00.691Z,19616.00
2019-05-29T05:48:00.718Z,21536.00
2019-05-29T05:49:00.669Z,21344.00
2019-05-29T05:50:00.687Z,25120.00
2019-05-29T05:51:00.648Z,31776.00
2019-05-29T05:52:00.630Z,25344.00
2019-05-29T05:53:00.632Z,20224.00
2019-05-29T05:54:00.621Z,19648.00
2019-05-29T05:55:00.632Z,26432.00
2019-05-29T05:56:00.591Z,26720.00
2019-05-29T05:57:00.570Z,33664.00
2019-05-29T05:58:00.562Z,49504.00
2019-05-29T05:59:00.600Z,62592.00
2019-05-29T06:00:00.536Z,61728.00
2019-05-29T06:01:00.563Z,63968.00
2019-05-29T06:02:00.544Z,65760.00
2019-05-29T06:03:00.495Z,63328.00
2019-05-29T06:04:00.486Z,65568.00
2019-05-29T06:05:00.493Z,66112.00
2019-05-29T06:06:00.517Z,65344.00
2019-05-29T06:07:00.490Z,64576.00
2019-05-29T06:08:00.485Z,66528.00
2019-05-29T06:09:00.434Z,66048.00
2019-05-29T06:10:00.435Z,63456.00
2019-05-29T06:11:00.499Z,62848.00
2019-05-29T06:12:00.418Z,63040.00
2019-05-29T06:13:00.416Z,63456.00
2019-05-29T06:14:00.433Z,60992.00
2019-05-29T06:15:00.386Z,55104.00
2019-05-29T06:16:00.436Z,64608.00
2019-05-29T06:17:00.376Z,63296.00
2019-05-29T06:18:19.552Z,65504.00
2019-05-29T06:19:01.346Z,65760.00
2019-05-29T06:20:00.333Z,68288.00
2019-05-29T06:21:00.376Z,67008.00
2019-05-29T06:22:00.334Z,68800.00
2019-05-29T06:23:00.328Z,70560.00
2019-05-29T06:24:00.289Z,71232.00
2019-05-29T06:25:00.274Z,71456.00
2019-05-29T06:26:00.341Z,74976.00
2019-05-29T06:27:00.264Z,77152.00
2019-05-29T06:28:00.273Z,76768.00
2019-05-29T06:29:00.254Z,76640.00
2019-05-29T06:30:00.227Z,78336.00
2019-05-29T06:31:00.230Z,79040.00
2019-05-29T06:32:00.206Z,77824.00
2019-05-29T06:33:00.205Z,78624.00
2019-05-29T06:34:00.181Z,78080.00
2019-05-29T06:35:00.193Z,77216.00
2019-05-29T06:36:00.205Z,76672.00
2019-05-29T06:37:00.159Z,77536.00
2019-05-29T06:38:00.155Z,79904.00
2019-05-29T06:39:00.136Z,81504.00
2019-05-29T06:40:00.200Z,84448.00
2019-05-29T06:41:00.151Z,83040.00
2019-05-29T06:42:00.093Z,82816.00
2019-05-29T06:43:00.091Z,83424.00
2019-05-29T06:44:00.086Z,83328.00
2019-05-29T06:45:00.104Z,83840.00
2019-05-29T06:46:00.097Z,86592.00
2019-05-29T06:47:00.048Z,86720.00
2019-05-29T06:48:00.060Z,90016.00
2019-05-29T06:49:01.010Z,91200.00
2019-05-29T06:50:00.030Z,89984.00
2019-05-29T06:51:00.048Z,89504.00
2019-05-29T06:52:00.017Z,89600.00
2019-05-29T06:52:59.992Z,88608.00
2019-05-29T06:54:00.009Z,90240.00
2019-05-29T06:55:00.015Z,91488.00
2019-05-29T06:56:01.453Z,91168.00
2019-05-29T06:56:59.965Z,92096.00
2019-05-29T06:57:59.957Z,92832.00
2019-05-29T06:58:59.940Z,93344.00
2019-05-29T06:59:59.951Z,92896.00
2019-05-29T07:00:59.941Z,93888.00
2019-05-29T07:01:59.934Z,93536.00
2019-05-29T07:02:59.941Z,93728.00
2019-05-29T07:04:11.082Z,92192.00
2019-05-29T07:05:00.909Z,91104.00
2019-05-29T07:05:59.918Z,90272.00
2019-05-29T07:06:59.893Z,90048.00
2019-05-29T07:08:16.506Z,90432.00
2019-05-29T07:09:00.874Z,92864.00
2019-05-29T07:09:59.862Z,93216.00
2019-05-29T07:10:59.847Z,92768.00
2019-05-29T07:11:59.920Z,92224.00
2019-05-29T07:12:59.840Z,93760.00
2019-05-29T07:13:59.839Z,93888.00
2019-05-29T07:14:59.886Z,93920.00
2019-05-29T07:15:59.788Z,94240.00
2019-05-29T07:16:59.844Z,94880.00
2019-05-29T07:17:59.768Z,95488.00
2019-05-29T07:20:03.985Z,94368.00
2019-05-29T07:20:59.782Z,93600.00
2019-05-29T07:21:59.830Z,92512.00
2019-05-29T07:22:59.754Z,94592.00
2019-05-29T07:23:59.762Z,94848.00
2019-05-29T07:24:59.722Z,96480.00
2019-05-29T07:25:59.712Z,95648.00
2019-05-29T07:26:59.748Z,94720.00
2019-05-29T07:27:59.707Z,94464.00
2019-05-29T07:29:08.054Z,93920.00
2019-05-29T07:30:00.679Z,94272.00
2019-05-29T07:31:03.074Z,93024.00
2019-05-29T07:31:59.672Z,91424.00
2019-05-29T07:32:59.634Z,91552.00
2019-05-29T07:33:59.633Z,91424.00
2019-05-29T07:35:03.645Z,93920.00
2019-05-29T07:35:59.613Z,93728.00
2019-05-29T07:36:59.634Z,93088.00
2019-05-29T07:37:59.581Z,92672.00
2019-05-29T07:39:03.705Z,93152.00
2019-05-29T07:39:59.568Z,91808.00
2019-05-29T07:40:59.637Z,90912.00
2019-05-29T07:41:59.570Z,91360.00
2019-05-29T07:42:59.541Z,90176.00
2019-05-29T07:43:59.538Z,92256.00
2019-05-29T07:44:59.538Z,92416.00
2019-05-29T07:45:59.524Z,92384.00
2019-05-29T07:46:59.569Z,91424.00
2019-05-29T07:47:59.516Z,91648.00
2019-05-29T07:48:59.616Z,92160.00
2019-05-29T07:49:59.486Z,92000.00
2019-05-29T07:51:07.140Z,87488.00
2019-05-29T07:52:00.505Z,87648.00
2019-05-29T07:52:59.511Z,88160.00
2019-05-29T07:53:59.444Z,89216.00
2019-05-29T07:54:59.437Z,90240.00
2019-05-29T07:55:59.395Z,90944.00
2019-05-29T07:56:59.439Z,71104.00
2019-05-29T07:57:59.417Z,90592.00
2019-05-29T07:59:02.886Z,90912.00
2019-05-29T07:59:59.411Z,80352.00
2019-05-29T08:01:12.208Z,18240.00
2019-05-29T08:02:00.430Z,91552.00
2019-05-29T08:02:59.354Z,91552.00
2019-05-29T08:03:59.347Z,91328.00
2019-05-29T08:04:59.325Z,16896.00
2019-05-29T08:05:59.345Z,59680.00
2019-05-29T08:06:59.349Z,39200.00
2019-05-29T08:07:59.321Z,85312.00
2019-05-29T08:08:59.296Z,88224.00
2019-05-29T08:09:59.278Z,88256.00
2019-05-29T08:10:59.306Z,87776.00
2019-05-29T08:11:59.285Z,85664.00
2019-05-29T08:12:59.271Z,87424.00
2019-05-29T08:13:59.252Z,89184.00
2019-05-29T08:14:59.244Z,89024.00
2019-05-29T08:16:03.114Z,90016.00
2019-05-29T08:16:59.227Z,91264.00
2019-05-29T08:17:59.265Z,90240.00
2019-05-29T08:18:59.931Z,90592.00
2019-05-29T08:20:06.603Z,88928.00
2019-05-29T08:21:00.194Z,89632.00
2019-05-29T08:21:59.184Z,89760.00
2019-05-29T08:22:59.226Z,88064.00
2019-05-29T08:23:59.171Z,85920.00
2019-05-29T08:24:59.157Z,84192.00
2019-05-29T08:25:59.152Z,83424.00
2019-05-29T08:26:59.157Z,82176.00
2019-05-29T08:27:59.147Z,85120.00
2019-05-29T08:28:59.113Z,87392.00
2019-05-29T08:29:59.107Z,86976.00
2019-05-29T08:30:59.093Z,84544.00
2019-05-29T08:31:59.086Z,85504.00
2019-05-29T08:32:59.082Z,86752.00
2019-05-29T08:33:59.142Z,87360.00
2019-05-29T08:34:59.092Z,88608.00
2019-05-29T08:36:00.364Z,88992.00
2019-05-29T08:37:06.687Z,89184.00
2019-05-29T08:38:00.047Z,87168.00
2019-05-29T08:38:59.031Z,87648.00
2019-05-29T08:39:59.017Z,85920.00
2019-05-29T08:40:59.007Z,85856.00
2019-05-29T08:42:21.505Z,85504.00
2019-05-29T08:42:59.994Z,84128.00
2019-05-29T08:43:58.970Z,83072.00
2019-05-29T08:44:58.969Z,82816.00
2019-05-29T08:45:58.985Z,84768.00
2019-05-29T08:47:09.701Z,84256.00
2019-05-29T08:47:59.983Z,83744.00
2019-05-29T08:48:58.923Z,84416.00
2019-05-29T08:50:16.660Z,81792.00
2019-05-29T08:50:59.908Z,83392.00
2019-05-29T08:52:11.375Z,83008.00
2019-05-29T08:53:02.505Z,81984.00
2019-05-29T08:53:58.889Z,82752.00
2019-05-29T08:54:58.876Z,82240.00
2019-05-29T08:55:58.887Z,81568.00
2019-05-29T08:56:58.832Z,80640.00
2019-05-29T08:57:58.891Z,80064.00
2019-05-29T08:58:58.820Z,79616.00
2019-05-29T08:59:58.835Z,79200.00
2019-05-29T09:00:58.846Z,79936.00
2019-05-29T09:01:58.799Z,79072.00
2019-05-29T09:02:58.793Z,76896.00
2019-05-29T09:03:58.775Z,77792.00
2019-05-29T09:04:58.779Z,78304.00
2019-05-29T09:06:08.356Z,79072.00
2019-05-29T09:07:00.038Z,77600.00
2019-05-29T09:07:58.811Z,76256.00
2019-05-29T09:08:58.737Z,74944.00
2019-05-29T09:09:58.727Z,74624.00
2019-05-29T09:10:58.857Z,74304.00
2019-05-29T09:11:58.703Z,75488.00
2019-05-29T09:13:04.848Z,74656.00
2019-05-29T09:13:59.706Z,72096.00
2019-05-29T09:14:58.792Z,71008.00
2019-05-29T09:15:58.694Z,71136.00
2019-05-29T09:16:58.738Z,71072.00
2019-05-29T09:17:58.657Z,70464.00
2019-05-29T09:18:58.641Z,70144.00
2019-05-29T09:19:58.637Z,71104.00
2019-05-29T09:21:03.374Z,71424.00
2019-05-29T09:21:59.611Z,70464.00
2019-05-29T09:22:58.637Z,66080.00
2019-05-29T09:23:59.163Z,60576.00
2019-05-29T09:24:58.586Z,60448.00
2019-05-29T09:26:13.621Z,66432.00
2019-05-29T09:26:59.561Z,67328.00
2019-05-29T09:27:58.561Z,67136.00
2019-05-29T09:28:58.588Z,65024.00
2019-05-29T09:29:58.527Z,62656.00
2019-05-29T09:30:58.521Z,63552.00
2019-05-29T09:31:58.499Z,63936.00
2019-05-29T09:32:58.507Z,61536.00
2019-05-29T09:33:58.506Z,60160.00
2019-05-29T09:34:58.495Z,59200.00
2019-05-29T09:35:58.495Z,61696.00
2019-05-29T09:36:58.523Z,60672.00
2019-05-29T09:37:58.451Z,56672.00
2019-05-29T09:38:58.463Z,56608.00
2019-05-29T09:39:58.423Z,55360.00
2019-05-29T09:40:58.426Z,55744.00
2019-05-29T09:41:58.425Z,54496.00
2019-05-29T09:42:58.407Z,55744.00
2019-05-29T09:44:00.220Z,56736.00
2019-05-29T09:44:58.383Z,54272.00
2019-05-29T09:46:02.062Z,53088.00
2019-05-29T09:46:58.378Z,54432.00
2019-05-29T09:47:58.353Z,53920.00
2019-05-29T09:49:01.400Z,53728.00
2019-05-29T09:49:58.333Z,53344.00
2019-05-29T09:50:58.351Z,53856.00
2019-05-29T09:51:58.331Z,53696.00
2019-05-29T09:52:59.004Z,52672.00
2019-05-29T09:53:59.582Z,50528.00
2019-05-29T09:54:58.391Z,49472.00
2019-05-29T09:55:59.082Z,51296.00
2019-05-29T09:56:59.459Z,50368.00
2019-05-29T09:57:58.697Z,49536.00
2019-05-29T09:58:59.769Z,49024.00
2019-05-29T09:59:59.936Z,48864.00
2019-05-29T10:01:18.599Z,48608.00
2019-05-29T10:02:00.363Z,47264.00
2019-05-29T10:02:59.498Z,46048.00
2019-05-29T10:04:00.064Z,46368.00
2019-05-29T10:05:00.448Z,45376.00
2019-05-29T10:05:59.373Z,43136.00
2019-05-29T10:06:59.438Z,42880.00
2019-05-29T10:07:59.616Z,44448.00
2019-05-29T10:08:58.599Z,46080.00
2019-05-29T10:09:59.274Z,44896.00
2019-05-29T10:11:06.860Z,45536.00
2019-05-29T10:12:03.444Z,46144.00
2019-05-29T10:13:00.021Z,45856.00
2019-05-29T10:13:58.827Z,45152.00
2019-05-29T10:14:58.938Z,38496.00
2019-05-29T10:15:59.106Z,30656.00
2019-05-29T10:16:59.314Z,30880.00
2019-05-29T10:17:58.536Z,39680.00
2019-05-29T10:18:59.803Z,45184.00
2019-05-29T10:19:58.986Z,43104.00
2019-05-29T10:20:59.561Z,41024.00
2019-05-29T10:22:00.101Z,39712.00
2019-05-29T10:22:58.968Z,37696.00
2019-05-29T10:23:59.514Z,39072.00
2019-05-29T10:24:58.719Z,36672.00
2019-05-29T10:25:58.805Z,37984.00
2019-05-29T10:26:59.045Z,37056.00
2019-05-29T10:27:57.962Z,36992.00
2019-05-29T10:29:07.802Z,38432.00
2019-05-29T10:29:58.940Z,36800.00
2019-05-29T10:31:02.911Z,34848.00
2019-05-29T10:31:58.969Z,36992.00
2019-05-29T10:32:57.925Z,30592.00
2019-05-29T10:33:57.900Z,24672.00
2019-05-29T10:34:57.889Z,31360.00
2019-05-29T10:35:57.900Z,36928.00
2019-05-29T10:36:57.885Z,33600.00
2019-05-29T10:37:57.875Z,31968.00
2019-05-29T10:38:57.860Z,33120.00
2019-05-29T10:39:57.842Z,20096.00
2019-05-29T10:41:06.260Z,13060.00
2019-05-29T10:41:58.866Z,12724.00
2019-05-29T10:42:57.819Z,12752.00
2019-05-29T10:43:57.810Z,12844.00
2019-05-29T10:44:57.801Z,12716.00
2019-05-29T10:45:57.811Z,12600.00
2019-05-29T10:46:57.812Z,12644.00
2019-05-29T10:47:57.771Z,12776.00
2019-05-29T10:48:57.770Z,12864.00
2019-05-29T10:49:57.750Z,13024.00
2019-05-29T10:50:57.742Z,13068.00
2019-05-29T10:52:10.902Z,12916.00
2019-05-29T10:52:58.723Z,12796.00
2019-05-29T10:53:59.095Z,12832.00
2019-05-29T10:54:57.679Z,12708.00
2019-05-29T10:55:57.691Z,13816.00
2019-05-29T10:56:57.704Z,14848.00
2019-05-29T10:57:57.673Z,13824.00
2019-05-29T10:58:59.934Z,13568.00
2019-05-29T10:59:57.691Z,13408.00
2019-05-29T11:00:57.662Z,15872.00
2019-05-29T11:01:57.654Z,16032.00
2019-05-29T11:02:57.867Z,13324.00
2019-05-29T11:03:57.612Z,13296.00
2019-05-29T11:04:59.556Z,14304.00
2019-05-29T11:05:57.596Z,14112.00
2019-05-29T11:06:57.595Z,14112.00
2019-05-29T11:07:57.566Z,14816.00
2019-05-29T11:08:57.571Z,14976.00
2019-05-29T11:09:57.555Z,14816.00
2019-05-29T11:10:57.517Z,14528.00
2019-05-29T11:11:57.842Z,14688.00
2019-05-29T11:12:57.544Z,14816.00
2019-05-29T11:13:57.507Z,14432.00
2019-05-29T11:14:57.501Z,14592.00
2019-05-29T11:15:57.484Z,14720.00
2019-05-29T11:16:57.713Z,14208.00
2019-05-29T11:17:57.863Z,13888.00
2019-05-29T11:18:57.713Z,13792.00
2019-05-29T11:19:58.236Z,13760.00
2019-05-29T11:20:57.657Z,13568.00
2019-05-29T11:22:01.704Z,12956.00
2019-05-29T11:22:58.442Z,12472.00
2019-05-29T11:23:58.165Z,11824.00
2019-05-29T11:24:58.435Z,11528.00
2019-05-29T11:25:58.396Z,11376.00
2019-05-29T11:26:58.582Z,11232.00
2019-05-29T11:27:58.563Z,11008.00
2019-05-29T11:28:58.623Z,10828.00
2019-05-29T11:29:58.769Z,10672.00
2019-05-29T11:30:57.323Z,10624.00
2019-05-29T11:31:57.355Z,10688.00
2019-05-29T11:33:00.473Z,10580.00
2019-05-29T11:33:57.345Z,10364.00
2019-05-29T11:34:57.586Z,10224.00
2019-05-29T11:36:09.208Z,10144.00
2019-05-29T11:36:58.380Z,10132.00
2019-05-29T11:37:58.724Z,10092.00
2019-05-29T11:39:01.390Z,10032.00
2019-05-29T11:39:59.019Z,10020.00
2019-05-29T11:41:22.809Z,9976.00
2019-05-29T11:41:58.914Z,9896.00
2019-05-29T11:42:57.235Z,9820.00
2019-05-29T11:43:57.250Z,9724.00
2019-05-29T11:44:57.201Z,9680.00
2019-05-29T11:45:57.415Z,9712.00
2019-05-29T11:46:58.198Z,9692.00
2019-05-29T11:47:59.165Z,9656.00
2019-05-29T11:48:57.394Z,9504.00
2019-05-29T11:50:07.676Z,9004.00
2019-05-29T11:50:58.307Z,8640.00
2019-05-29T11:52:18.673Z,8576.00
2019-05-29T11:52:58.561Z,8580.00
2019-05-29T11:53:57.555Z,8576.00
2019-05-29T11:54:59.968Z,8576.00
2019-05-29T11:55:58.140Z,8584.00
2019-05-29T11:56:57.428Z,8580.00
2019-05-29T11:57:57.937Z,8572.00
2019-05-29T11:58:57.265Z,8540.00
2019-05-29T12:00:01.262Z,8508.00
2019-05-29T12:00:59.136Z,8468.00
2019-05-29T12:01:58.569Z,8468.00
2019-05-29T12:02:57.748Z,8488.00
2019-05-29T12:04:18.521Z,8480.00
2019-05-29T12:05:00.719Z,8476.00
2019-05-29T12:05:59.056Z,8456.00
2019-05-29T12:06:57.574Z,8440.00
2019-05-29T12:07:57.545Z,8392.00
2019-05-29T12:08:57.919Z,8372.00
2019-05-29T12:09:57.543Z,8368.00
2019-05-29T12:10:57.392Z,8352.00
2019-05-29T12:11:57.962Z,8368.00
2019-05-29T12:12:57.585Z,8316.00
2019-05-29T12:13:58.024Z,8268.00